sensor_id;sensor_type;location;lat;lon;timestamp;P1;durP1;ratioP1;P2;durP2;ratioP2
5612;SDS011;63463;53.586;9.928;2023-04-03T00:02:23;6.43;;;5.93;;
5612;SDS011;63463;53.586;9.928;2023-04-03T00:04:51;8.20;;;6.20;;
5612;SDS011;63463;53.586;9.928;2023-04-03T00:07:17;8.30;;;6.10;;
5612;SDS011;63463;53.586;9.928;2023-04-03T00:09:46;7.90;;;6.00;;
5612;SDS011;63463;53.586;9.928;2023-04-03T00:12:16;6.63;;;6.10;;
5612;SDS011;63463;53.586;9.928;2023-04-03T00:14:42;5.90;;;5.70;;
5612;SDS011;63463;53.586;9.928;2023-04-03T00:17:11;6.90;;;6.30;;
5612;SDS011;63463;53.586;9.928;2023-04-03T00:19:37;8.10;;;6.30;;
5612;SDS011;63463;53.586;9.928;2023-04-03T00:22:04;7.10;;;6.50;;
5612;SDS011;63463;53.586;9.928;2023-04-03T00:24:40;7.97;;;6.03;;
5612;SDS011;63463;53.586;9.928;2023-04-03T00:27:49;6.60;;;6.03;;
5612;SDS011;63463;53.586;9.928;2023-04-03T00:29:56;6.23;;;5.70;;
5612;SDS011;63463;53.586;9.928;2023-04-03T00:32:23;9.37;;;6.60;;
5612;SDS011;63463;53.586;9.928;2023-04-03T00:34:50;6.37;;;5.97;;
5612;SDS011;63463;53.586;9.928;2023-04-03T00:37:21;6.33;;;5.77;;
5612;SDS011;63463;53.586;9.928;2023-04-03T00:39:50;6.10;;;5.80;;
5612;SDS011;63463;53.586;9.928;2023-04-03T00:42:21;8.13;;;6.80;;
5612;SDS011;63463;53.586;9.928;2023-04-03T00:50:27;6.67;;;6.07;;
5612;SDS011;63463;53.586;9.928;2023-04-03T00:53:00;6.60;;;6.20;;
5612;SDS011;63463;53.586;9.928;2023-04-03T00:55:29;7.37;;;6.10;;
5612;SDS011;63463;53.586;9.928;2023-04-03T00:58:19;10.17;;;6.70;;
5612;SDS011;63463;53.586;9.928;2023-04-03T01:00:52;11.70;;;6.00;;
5612;SDS011;63463;53.586;9.928;2023-04-03T01:03:31;11.83;;;6.97;;
5612;SDS011;63463;53.586;9.928;2023-04-03T01:06:10;7.17;;;6.40;;
5612;SDS011;63463;53.586;9.928;2023-04-03T01:08:40;9.80;;;6.07;;
5612;SDS011;63463;53.586;9.928;2023-04-03T01:11:20;9.40;;;6.50;;
5612;SDS011;63463;53.586;9.928;2023-04-03T01:13:49;15.40;;;6.73;;
5612;SDS011;63463;53.586;9.928;2023-04-03T01:16:17;8.93;;;7.40;;
5612;SDS011;63463;53.586;9.928;2023-04-03T01:18:44;7.90;;;6.87;;
5612;SDS011;63463;53.586;9.928;2023-04-03T01:21:30;6.90;;;6.40;;
5612;SDS011;63463;53.586;9.928;2023-04-03T01:26:49;7.13;;;5.70;;
5612;SDS011;63463;53.586;9.928;2023-04-03T01:29:16;6.80;;;6.10;;
5612;SDS011;63463;53.586;9.928;2023-04-03T01:31:49;6.90;;;6.30;;
5612;SDS011;63463;53.586;9.928;2023-04-03T01:34:26;7.27;;;6.67;;
5612;SDS011;63463;53.586;9.928;2023-04-03T01:36:56;6.97;;;6.47;;
5612;SDS011;63463;53.586;9.928;2023-04-03T01:39:31;7.93;;;6.80;;
5612;SDS011;63463;53.586;9.928;2023-04-03T01:41:58;7.13;;;6.43;;
5612;SDS011;63463;53.586;9.928;2023-04-03T01:44:25;11.80;;;6.87;;
5612;SDS011;63463;53.586;9.928;2023-04-03T01:46:51;6.43;;;5.73;;
5612;SDS011;63463;53.586;9.928;2023-04-03T01:49:20;8.37;;;6.90;;
5612;SDS011;63463;53.586;9.928;2023-04-03T01:51:50;7.23;;;6.43;;
5612;SDS011;63463;53.586;9.928;2023-04-03T01:54:16;6.33;;;6.00;;
5612;SDS011;63463;53.586;9.928;2023-04-03T01:56:42;6.70;;;6.07;;
5612;SDS011;63463;53.586;9.928;2023-04-03T01:59:18;6.70;;;6.30;;
5612;SDS011;63463;53.586;9.928;2023-04-03T02:01:55;7.20;;;6.70;;
5612;SDS011;63463;53.586;9.928;2023-04-03T02:04:26;18.53;;;7.30;;
5612;SDS011;63463;53.586;9.928;2023-04-03T02:07:11;7.60;;;6.90;;
5612;SDS011;63463;53.586;9.928;2023-04-03T02:09:47;11.07;;;7.70;;
5612;SDS011;63463;53.586;9.928;2023-04-03T02:12:24;7.00;;;6.60;;
5612;SDS011;63463;53.586;9.928;2023-04-03T02:14:54;6.73;;;6.23;;
5612;SDS011;63463;53.586;9.928;2023-04-03T02:17:33;10.53;;;7.00;;
5612;SDS011;63463;53.586;9.928;2023-04-03T02:20:08;15.40;;;7.13;;
5612;SDS011;63463;53.586;9.928;2023-04-03T02:22:45;6.47;;;6.00;;
5612;SDS011;63463;53.586;9.928;2023-04-03T02:25:18;7.80;;;6.90;;
5612;SDS011;63463;53.586;9.928;2023-04-03T02:27:53;6.73;;;6.23;;
5612;SDS011;63463;53.586;9.928;2023-04-03T02:30:19;6.57;;;6.10;;
5612;SDS011;63463;53.586;9.928;2023-04-03T02:32:47;7.40;;;6.67;;
5612;SDS011;63463;53.586;9.928;2023-04-03T02:35:16;6.93;;;6.43;;
5612;SDS011;63463;53.586;9.928;2023-04-03T02:37:55;6.70;;;6.20;;
5612;SDS011;63463;53.586;9.928;2023-04-03T02:40:23;10.97;;;6.57;;
5612;SDS011;63463;53.586;9.928;2023-04-03T02:42:54;7.40;;;6.80;;
5612;SDS011;63463;53.586;9.928;2023-04-03T02:45:21;6.30;;;5.90;;
5612;SDS011;63463;53.586;9.928;2023-04-03T02:47:47;7.47;;;6.73;;
5612;SDS011;63463;53.586;9.928;2023-04-03T02:53:24;9.67;;;6.80;;
5612;SDS011;63463;53.586;9.928;2023-04-03T02:56:06;7.30;;;6.67;;
5612;SDS011;63463;53.586;9.928;2023-04-03T02:58:54;9.97;;;7.80;;
5612;SDS011;63463;53.586;9.928;2023-04-03T03:01:20;10.00;;;6.30;;
5612;SDS011;63463;53.586;9.928;2023-04-03T03:03:56;7.63;;;6.93;;
5612;SDS011;63463;53.586;9.928;2023-04-03T03:06:26;10.87;;;6.80;;
5612;SDS011;63463;53.586;9.928;2023-04-03T03:08:53;8.27;;;6.30;;
5612;SDS011;63463;53.586;9.928;2023-04-03T03:11:32;8.30;;;6.83;;
5612;SDS011;63463;53.586;9.928;2023-04-03T03:14:04;9.90;;;6.60;;
5612;SDS011;63463;53.586;9.928;2023-04-03T03:16:33;7.67;;;7.07;;
5612;SDS011;63463;53.586;9.928;2023-04-03T03:19:00;10.20;;;7.67;;
5612;SDS011;63463;53.586;9.928;2023-04-03T03:21:27;7.10;;;6.60;;
5612;SDS011;63463;53.586;9.928;2023-04-03T03:23:53;7.03;;;6.53;;
5612;SDS011;63463;53.586;9.928;2023-04-03T03:26:23;7.40;;;6.80;;
5612;SDS011;63463;53.586;9.928;2023-04-03T03:28:56;9.70;;;7.20;;
5612;SDS011;63463;53.586;9.928;2023-04-03T03:31:22;7.40;;;6.90;;
5612;SDS011;63463;53.586;9.928;2023-04-03T03:34:07;10.03;;;6.93;;
5612;SDS011;63463;53.586;9.928;2023-04-03T03:36:35;6.80;;;6.30;;
5612;SDS011;63463;53.586;9.928;2023-04-03T03:39:04;6.43;;;6.00;;
5612;SDS011;63463;53.586;9.928;2023-04-03T03:41:33;7.27;;;6.53;;
5612;SDS011;63463;53.586;9.928;2023-04-03T03:44:09;12.27;;;6.40;;
5612;SDS011;63463;53.586;9.928;2023-04-03T03:46:35;7.37;;;6.60;;
5612;SDS011;63463;53.586;9.928;2023-04-03T03:49:01;7.10;;;6.70;;
5612;SDS011;63463;53.586;9.928;2023-04-03T03:51:34;8.20;;;6.70;;
5612;SDS011;63463;53.586;9.928;2023-04-03T03:54:01;7.50;;;6.80;;
5612;SDS011;63463;53.586;9.928;2023-04-03T03:56:27;6.90;;;6.20;;
5612;SDS011;63463;53.586;9.928;2023-04-03T03:58:53;10.20;;;8.47;;
5612;SDS011;63463;53.586;9.928;2023-04-03T04:01:21;7.10;;;6.60;;
5612;SDS011;63463;53.586;9.928;2023-04-03T04:03:51;6.57;;;6.10;;
5612;SDS011;63463;53.586;9.928;2023-04-03T04:06:19;9.77;;;6.87;;
5612;SDS011;63463;53.586;9.928;2023-04-03T04:08:47;6.83;;;6.43;;
5612;SDS011;63463;53.586;9.928;2023-04-03T04:11:17;7.47;;;6.70;;
5612;SDS011;63463;53.586;9.928;2023-04-03T04:13:53;7.37;;;6.50;;
5612;SDS011;63463;53.586;9.928;2023-04-03T04:16:31;7.63;;;7.00;;
5612;SDS011;63463;53.586;9.928;2023-04-03T04:19:02;7.83;;;7.00;;
5612;SDS011;63463;53.586;9.928;2023-04-03T04:21:31;11.97;;;6.70;;
5612;SDS011;63463;53.586;9.928;2023-04-03T04:24:17;10.50;;;6.77;;
5612;SDS011;63463;53.586;9.928;2023-04-03T04:27:04;9.13;;;7.60;;
5612;SDS011;63463;53.586;9.928;2023-04-03T04:29:33;18.30;;;7.40;;
5612;SDS011;63463;53.586;9.928;2023-04-03T04:32:24;22.00;;;7.20;;
5612;SDS011;63463;53.586;9.928;2023-04-03T04:34:51;7.40;;;7.00;;
5612;SDS011;63463;53.586;9.928;2023-04-03T04:37:21;7.80;;;7.20;;
5612;SDS011;63463;53.586;9.928;2023-04-03T04:39:51;11.90;;;7.13;;
5612;SDS011;63463;53.586;9.928;2023-04-03T04:42:20;8.57;;;7.03;;
5612;SDS011;63463;53.586;9.928;2023-04-03T04:44:47;7.23;;;6.73;;
5612;SDS011;63463;53.586;9.928;2023-04-03T04:47:16;9.50;;;6.70;;
5612;SDS011;63463;53.586;9.928;2023-04-03T04:49:56;10.07;;;7.33;;
5612;SDS011;63463;53.586;9.928;2023-04-03T04:52:23;7.73;;;6.43;;
5612;SDS011;63463;53.586;9.928;2023-04-03T04:54:53;7.93;;;7.13;;
5612;SDS011;63463;53.586;9.928;2023-04-03T04:57:20;8.00;;;7.23;;
5612;SDS011;63463;53.586;9.928;2023-04-03T04:59:50;7.20;;;6.70;;
5612;SDS011;63463;53.586;9.928;2023-04-03T05:02:19;8.07;;;7.03;;
5612;SDS011;63463;53.586;9.928;2023-04-03T05:04:52;14.90;;;7.23;;
5612;SDS011;63463;53.586;9.928;2023-04-03T05:07:24;7.90;;;7.20;;
5612;SDS011;63463;53.586;9.928;2023-04-03T05:09:57;15.10;;;7.60;;
5612;SDS011;63463;53.586;9.928;2023-04-03T05:12:29;11.80;;;7.60;;
5612;SDS011;63463;53.586;9.928;2023-04-03T05:14:59;7.17;;;6.10;;
5612;SDS011;63463;53.586;9.928;2023-04-03T05:17:27;7.40;;;6.70;;
5612;SDS011;63463;53.586;9.928;2023-04-03T05:19:54;7.30;;;6.80;;
5612;SDS011;63463;53.586;9.928;2023-04-03T05:22:23;7.57;;;6.87;;
5612;SDS011;63463;53.586;9.928;2023-04-03T05:24:50;8.37;;;7.60;;
5612;SDS011;63463;53.586;9.928;2023-04-03T05:27:16;7.17;;;6.50;;
5612;SDS011;63463;53.586;9.928;2023-04-03T05:29:45;7.93;;;7.00;;
5612;SDS011;63463;53.586;9.928;2023-04-03T05:32:12;7.10;;;6.60;;
5612;SDS011;63463;53.586;9.928;2023-04-03T05:34:39;7.07;;;6.50;;
5612;SDS011;63463;53.586;9.928;2023-04-03T05:37:05;14.17;;;8.40;;
5612;SDS011;63463;53.586;9.928;2023-04-03T05:39:31;7.87;;;7.17;;
5612;SDS011;63463;53.586;9.928;2023-04-03T05:42:08;14.70;;;7.40;;
5612;SDS011;63463;53.586;9.928;2023-04-03T05:44:36;8.60;;;7.23;;
5612;SDS011;63463;53.586;9.928;2023-04-03T05:47:06;7.73;;;6.87;;
5612;SDS011;63463;53.586;9.928;2023-04-03T05:49:42;11.00;;;7.30;;
5612;SDS011;63463;53.586;9.928;2023-04-03T05:52:22;22.60;;;6.47;;
5612;SDS011;63463;53.586;9.928;2023-04-03T05:54:55;8.40;;;6.77;;
5612;SDS011;63463;53.586;9.928;2023-04-03T05:57:22;10.97;;;7.67;;
5612;SDS011;63463;53.586;9.928;2023-04-03T05:59:51;9.03;;;7.83;;
5612;SDS011;63463;53.586;9.928;2023-04-03T06:02:21;15.80;;;7.30;;
5612;SDS011;63463;53.586;9.928;2023-04-03T06:04:55;9.30;;;7.87;;
5612;SDS011;63463;53.586;9.928;2023-04-03T06:07:25;11.13;;;7.73;;
5612;SDS011;63463;53.586;9.928;2023-04-03T06:10:11;16.70;;;7.63;;
5612;SDS011;63463;53.586;9.928;2023-04-03T06:12:41;10.23;;;8.50;;
5612;SDS011;63463;53.586;9.928;2023-04-03T06:15:14;11.77;;;8.20;;
5612;SDS011;63463;53.586;9.928;2023-04-03T06:17:42;10.97;;;6.90;;
5612;SDS011;63463;53.586;9.928;2023-04-03T06:23:04;8.87;;;7.20;;
5612;SDS011;63463;53.586;9.928;2023-04-03T06:25:33;11.33;;;7.40;;
5612;SDS011;63463;53.586;9.928;2023-04-03T06:28:00;15.20;;;7.27;;
5612;SDS011;63463;53.586;9.928;2023-04-03T06:30:30;9.00;;;7.97;;
5612;SDS011;63463;53.586;9.928;2023-04-03T06:32:59;14.67;;;7.37;;
5612;SDS011;63463;53.586;9.928;2023-04-03T06:38:06;8.00;;;6.70;;
5612;SDS011;63463;53.586;9.928;2023-04-03T06:40:36;7.47;;;6.87;;
5612;SDS011;63463;53.586;9.928;2023-04-03T06:45:58;11.37;;;7.43;;
5612;SDS011;63463;53.586;9.928;2023-04-03T06:48:27;11.70;;;6.83;;
5612;SDS011;63463;53.586;9.928;2023-04-03T06:50:54;9.77;;;7.23;;
5612;SDS011;63463;53.586;9.928;2023-04-03T06:53:42;11.20;;;7.20;;
5612;SDS011;63463;53.586;9.928;2023-04-03T06:56:28;8.60;;;7.00;;
5612;SDS011;63463;53.586;9.928;2023-04-03T06:59:21;10.33;;;8.57;;
5612;SDS011;63463;53.586;9.928;2023-04-03T07:01:48;10.10;;;6.93;;
5612;SDS011;63463;53.586;9.928;2023-04-03T07:04:14;7.67;;;6.33;;
5612;SDS011;63463;53.586;9.928;2023-04-03T07:06:46;9.80;;;6.50;;
5612;SDS011;63463;53.586;9.928;2023-04-03T07:09:13;10.13;;;7.03;;
5612;SDS011;63463;53.586;9.928;2023-04-03T07:11:40;7.33;;;6.63;;
5612;SDS011;63463;53.586;9.928;2023-04-03T07:14:06;7.40;;;6.90;;
5612;SDS011;63463;53.586;9.928;2023-04-03T07:16:33;10.73;;;7.10;;
5612;SDS011;63463;53.586;9.928;2023-04-03T07:19:06;7.70;;;6.80;;
5612;SDS011;63463;53.586;9.928;2023-04-03T07:21:33;8.40;;;7.20;;
5612;SDS011;63463;53.586;9.928;2023-04-03T07:23:59;6.73;;;6.33;;
5612;SDS011;63463;53.586;9.928;2023-04-03T07:26:37;7.53;;;5.87;;
5612;SDS011;63463;53.586;9.928;2023-04-03T07:29:04;9.03;;;5.97;;
5612;SDS011;63463;53.586;9.928;2023-04-03T07:31:35;6.43;;;5.83;;
5612;SDS011;63463;53.586;9.928;2023-04-03T07:34:04;5.77;;;5.53;;
5612;SDS011;63463;53.586;9.928;2023-04-03T07:36:33;5.70;;;5.30;;
5612;SDS011;63463;53.586;9.928;2023-04-03T07:39:02;6.00;;;5.37;;
5612;SDS011;63463;53.586;9.928;2023-04-03T07:41:31;5.40;;;5.10;;
5612;SDS011;63463;53.586;9.928;2023-04-03T07:44:03;5.70;;;5.40;;
5612;SDS011;63463;53.586;9.928;2023-04-03T07:46:35;5.37;;;5.07;;
5612;SDS011;63463;53.586;9.928;2023-04-03T07:49:02;5.37;;;5.07;;
5612;SDS011;63463;53.586;9.928;2023-04-03T07:51:28;5.20;;;4.90;;
5612;SDS011;63463;53.586;9.928;2023-04-03T07:53:57;5.63;;;4.83;;
5612;SDS011;63463;53.586;9.928;2023-04-03T07:56:25;5.23;;;4.80;;
5612;SDS011;63463;53.586;9.928;2023-04-03T07:58:51;5.13;;;4.83;;
5612;SDS011;63463;53.586;9.928;2023-04-03T08:01:21;5.10;;;4.90;;
5612;SDS011;63463;53.586;9.928;2023-04-03T08:03:50;6.03;;;5.43;;
5612;SDS011;63463;53.586;9.928;2023-04-03T08:06:17;6.03;;;5.43;;
5612;SDS011;63463;53.586;9.928;2023-04-03T08:12:01;5.20;;;4.87;;
5612;SDS011;63463;53.586;9.928;2023-04-03T08:14:29;5.07;;;4.70;;
5612;SDS011;63463;53.586;9.928;2023-04-03T08:16:56;8.13;;;4.97;;
5612;SDS011;63463;53.586;9.928;2023-04-03T08:19:23;5.13;;;4.83;;
5612;SDS011;63463;53.586;9.928;2023-04-03T08:21:49;5.50;;;5.03;;
5612;SDS011;63463;53.586;9.928;2023-04-03T08:24:15;5.30;;;4.83;;
5612;SDS011;63463;53.586;9.928;2023-04-03T08:26:43;5.07;;;4.67;;
5612;SDS011;63463;53.586;9.928;2023-04-03T08:29:09;4.93;;;4.73;;
5612;SDS011;63463;53.586;9.928;2023-04-03T08:31:35;5.23;;;4.90;;
5612;SDS011;63463;53.586;9.928;2023-04-03T08:34:01;5.03;;;4.83;;
5612;SDS011;63463;53.586;9.928;2023-04-03T08:36:28;5.00;;;4.70;;
5612;SDS011;63463;53.586;9.928;2023-04-03T08:38:56;5.00;;;4.70;;
5612;SDS011;63463;53.586;9.928;2023-04-03T08:41:36;4.77;;;4.57;;
5612;SDS011;63463;53.586;9.928;2023-04-03T08:44:14;8.33;;;4.10;;
5612;SDS011;63463;53.586;9.928;2023-04-03T08:49:10;4.53;;;4.33;;
5612;SDS011;63463;53.586;9.928;2023-04-03T08:51:40;4.90;;;4.60;;
5612;SDS011;63463;53.586;9.928;2023-04-03T08:54:16;4.30;;;4.10;;
5612;SDS011;63463;53.586;9.928;2023-04-03T08:56:48;4.47;;;4.27;;
5612;SDS011;63463;53.586;9.928;2023-04-03T08:59:16;5.33;;;4.77;;
5612;SDS011;63463;53.586;9.928;2023-04-03T09:01:43;8.33;;;4.30;;
5612;SDS011;63463;53.586;9.928;2023-04-03T09:04:16;4.63;;;4.33;;
5612;SDS011;63463;53.586;9.928;2023-04-03T09:06:44;4.77;;;4.47;;
5612;SDS011;63463;53.586;9.928;2023-04-03T09:09:24;5.07;;;4.10;;
5612;SDS011;63463;53.586;9.928;2023-04-03T09:19:56;5.20;;;4.80;;
5612;SDS011;63463;53.586;9.928;2023-04-03T09:22:25;6.10;;;4.60;;
5612;SDS011;63463;53.586;9.928;2023-04-03T09:27:26;4.50;;;4.30;;
5612;SDS011;63463;53.586;9.928;2023-04-03T09:29:56;4.73;;;4.13;;
5612;SDS011;63463;53.586;9.928;2023-04-03T09:32:29;6.30;;;4.20;;
5612;SDS011;63463;53.586;9.928;2023-04-03T09:34:57;9.10;;;4.37;;
5612;SDS011;63463;53.586;9.928;2023-04-03T09:37:41;5.60;;;4.20;;
5612;SDS011;63463;53.586;9.928;2023-04-03T09:42:56;3.87;;;3.77;;
5612;SDS011;63463;53.586;9.928;2023-04-03T09:45:24;9.83;;;3.70;;
5612;SDS011;63463;53.586;9.928;2023-04-03T09:50:57;3.63;;;3.53;;
5612;SDS011;63463;53.586;9.928;2023-04-03T09:53:28;4.10;;;3.80;;
5612;SDS011;63463;53.586;9.928;2023-04-03T09:55:55;3.87;;;3.60;;
5612;SDS011;63463;53.586;9.928;2023-04-03T10:00:57;3.40;;;3.30;;
5612;SDS011;63463;53.586;9.928;2023-04-03T10:03:25;3.53;;;3.33;;
5612;SDS011;63463;53.586;9.928;2023-04-03T10:05:54;3.33;;;3.23;;
5612;SDS011;63463;53.586;9.928;2023-04-03T10:08:27;3.90;;;3.60;;
5612;SDS011;63463;53.586;9.928;2023-04-03T10:11:10;3.43;;;3.33;;
5612;SDS011;63463;53.586;9.928;2023-04-03T10:13:49;3.67;;;3.53;;
5612;SDS011;63463;53.586;9.928;2023-04-03T10:16:17;3.60;;;3.50;;
5612;SDS011;63463;53.586;9.928;2023-04-03T10:18:46;3.43;;;3.23;;
5612;SDS011;63463;53.586;9.928;2023-04-03T10:21:35;4.20;;;3.90;;
5612;SDS011;63463;53.586;9.928;2023-04-03T10:24:16;3.70;;;3.50;;
5612;SDS011;63463;53.586;9.928;2023-04-03T10:34:24;4.03;;;3.00;;
5612;SDS011;63463;53.586;9.928;2023-04-03T10:36:59;3.73;;;3.27;;
5612;SDS011;63463;53.586;9.928;2023-04-03T10:39:51;3.40;;;3.10;;
5612;SDS011;63463;53.586;9.928;2023-04-03T10:55:14;4.50;;;3.20;;
5612;SDS011;63463;53.586;9.928;2023-04-03T10:57:42;5.43;;;3.47;;
5612;SDS011;63463;53.586;9.928;2023-04-03T11:00:14;7.97;;;3.43;;
5612;SDS011;63463;53.586;9.928;2023-04-03T11:05:17;3.17;;;2.97;;
5612;SDS011;63463;53.586;9.928;2023-04-03T11:07:47;5.90;;;3.47;;
5612;SDS011;63463;53.586;9.928;2023-04-03T11:10:17;3.00;;;2.80;;
5612;SDS011;63463;53.586;9.928;2023-04-03T11:13:34;3.27;;;3.17;;
5612;SDS011;63463;53.586;9.928;2023-04-03T11:15:35;3.10;;;2.90;;
5612;SDS011;63463;53.586;9.928;2023-04-03T11:18:02;3.03;;;2.83;;
5612;SDS011;63463;53.586;9.928;2023-04-03T11:20:30;3.20;;;2.90;;
5612;SDS011;63463;53.586;9.928;2023-04-03T11:23:09;3.20;;;3.00;;
5612;SDS011;63463;53.586;9.928;2023-04-03T11:25:41;3.67;;;3.20;;
5612;SDS011;63463;53.586;9.928;2023-04-03T11:28:12;4.40;;;2.90;;
5612;SDS011;63463;53.586;9.928;2023-04-03T11:36:23;4.63;;;2.97;;
5612;SDS011;63463;53.586;9.928;2023-04-03T11:38:47;2.90;;;2.80;;
5612;SDS011;63463;53.586;9.928;2023-04-03T11:41:14;3.40;;;3.10;;
5612;SDS011;63463;53.586;9.928;2023-04-03T11:43:42;3.10;;;2.80;;
5612;SDS011;63463;53.586;9.928;2023-04-03T11:46:21;3.30;;;3.00;;
5612;SDS011;63463;53.586;9.928;2023-04-03T11:48:48;2.90;;;2.80;;
5612;SDS011;63463;53.586;9.928;2023-04-03T11:53:41;3.17;;;3.00;;
5612;SDS011;63463;53.586;9.928;2023-04-03T12:04:17;3.27;;;3.00;;
5612;SDS011;63463;53.586;9.928;2023-04-03T12:09:24;3.53;;;3.23;;
5612;SDS011;63463;53.586;9.928;2023-04-03T12:11:51;4.10;;;3.47;;
5612;SDS011;63463;53.586;9.928;2023-04-03T12:14:17;6.93;;;3.30;;
5612;SDS011;63463;53.586;9.928;2023-04-03T12:16:44;4.33;;;3.07;;
5612;SDS011;63463;53.586;9.928;2023-04-03T12:45:22;3.93;;;3.63;;
5612;SDS011;63463;53.586;9.928;2023-04-03T12:47:51;3.60;;;3.50;;
5612;SDS011;63463;53.586;9.928;2023-04-03T12:52:54;6.60;;;3.40;;
5612;SDS011;63463;53.586;9.928;2023-04-03T12:55:25;4.30;;;3.77;;
5612;SDS011;63463;53.586;9.928;2023-04-03T12:57:54;4.07;;;3.40;;
5612;SDS011;63463;53.586;9.928;2023-04-03T13:03:14;3.40;;;3.30;;
5612;SDS011;63463;53.586;9.928;2023-04-03T13:05:45;3.10;;;3.00;;
5612;SDS011;63463;53.586;9.928;2023-04-03T13:08:12;4.30;;;3.17;;
5612;SDS011;63463;53.586;9.928;2023-04-03T13:11:14;3.50;;;3.30;;
5612;SDS011;63463;53.586;9.928;2023-04-03T13:13:33;3.90;;;3.33;;
5612;SDS011;63463;53.586;9.928;2023-04-03T13:15:59;6.00;;;3.50;;
5612;SDS011;63463;53.586;9.928;2023-04-03T13:18:34;3.77;;;3.20;;
5612;SDS011;63463;53.586;9.928;2023-04-03T13:21:03;4.17;;;3.77;;
5612;SDS011;63463;53.586;9.928;2023-04-03T13:23:30;5.90;;;3.83;;
5612;SDS011;63463;53.586;9.928;2023-04-03T13:25:57;4.17;;;3.60;;
5612;SDS011;63463;53.586;9.928;2023-04-03T13:28:28;3.67;;;3.20;;
5612;SDS011;63463;53.586;9.928;2023-04-03T13:31:03;5.17;;;3.30;;
5612;SDS011;63463;53.586;9.928;2023-04-03T13:33:35;6.60;;;3.30;;
5612;SDS011;63463;53.586;9.928;2023-04-03T13:36:06;3.13;;;2.90;;
5612;SDS011;63463;53.586;9.928;2023-04-03T13:38:33;2.97;;;2.87;;
5612;SDS011;63463;53.586;9.928;2023-04-03T13:41:03;3.00;;;2.90;;
5612;SDS011;63463;53.586;9.928;2023-04-03T13:46:21;3.37;;;3.17;;
5612;SDS011;63463;53.586;9.928;2023-04-03T13:48:49;4.03;;;3.30;;
5612;SDS011;63463;53.586;9.928;2023-04-03T13:53:56;4.47;;;4.00;;
5612;SDS011;63463;53.586;9.928;2023-04-03T13:56:29;3.40;;;3.10;;
5612;SDS011;63463;53.586;9.928;2023-04-03T13:58:57;3.53;;;3.20;;
5612;SDS011;63463;53.586;9.928;2023-04-03T14:01:24;3.63;;;3.53;;
5612;SDS011;63463;53.586;9.928;2023-04-03T14:03:58;3.57;;;3.40;;
5612;SDS011;63463;53.586;9.928;2023-04-03T14:06:24;3.83;;;3.47;;
5612;SDS011;63463;53.586;9.928;2023-04-03T14:08:51;4.50;;;3.33;;
5612;SDS011;63463;53.586;9.928;2023-04-03T14:11:19;3.87;;;3.67;;
5612;SDS011;63463;53.586;9.928;2023-04-03T14:13:47;3.80;;;3.57;;
5612;SDS011;63463;53.586;9.928;2023-04-03T14:16:16;3.97;;;3.67;;
5612;SDS011;63463;53.586;9.928;2023-04-03T14:18:46;5.93;;;3.63;;
5612;SDS011;63463;53.586;9.928;2023-04-03T14:21:13;4.40;;;3.33;;
5612;SDS011;63463;53.586;9.928;2023-04-03T14:23:44;4.20;;;3.60;;
5612;SDS011;63463;53.586;9.928;2023-04-03T14:26:14;3.90;;;3.67;;
5612;SDS011;63463;53.586;9.928;2023-04-03T14:28:43;3.70;;;3.40;;
5612;SDS011;63463;53.586;9.928;2023-04-03T14:31:10;3.40;;;3.20;;
5612;SDS011;63463;53.586;9.928;2023-04-03T14:33:37;7.20;;;3.70;;
5612;SDS011;63463;53.586;9.928;2023-04-03T14:36:13;20.03;;;3.50;;
5612;SDS011;63463;53.586;9.928;2023-04-03T14:38:40;4.00;;;3.60;;
5612;SDS011;63463;53.586;9.928;2023-04-03T14:41:06;4.20;;;3.80;;
5612;SDS011;63463;53.586;9.928;2023-04-03T14:43:32;3.73;;;3.50;;
5612;SDS011;63463;53.586;9.928;2023-04-03T14:45:58;3.60;;;3.50;;
5612;SDS011;63463;53.586;9.928;2023-04-03T14:48:25;3.50;;;3.40;;
5612;SDS011;63463;53.586;9.928;2023-04-03T14:50:56;3.80;;;3.60;;
5612;SDS011;63463;53.586;9.928;2023-04-03T14:53:23;3.83;;;3.57;;
5612;SDS011;63463;53.586;9.928;2023-04-03T14:55:51;7.60;;;3.80;;
5612;SDS011;63463;53.586;9.928;2023-04-03T14:58:27;3.93;;;3.67;;
5612;SDS011;63463;53.586;9.928;2023-04-03T15:00:54;4.23;;;3.73;;
5612;SDS011;63463;53.586;9.928;2023-04-03T15:03:22;3.93;;;3.70;;
5612;SDS011;63463;53.586;9.928;2023-04-03T15:05:48;3.80;;;3.50;;
5612;SDS011;63463;53.586;9.928;2023-04-03T15:08:19;5.40;;;3.60;;
5612;SDS011;63463;53.586;9.928;2023-04-03T15:10:47;3.33;;;3.23;;
5612;SDS011;63463;53.586;9.928;2023-04-03T15:13:13;3.53;;;3.33;;
5612;SDS011;63463;53.586;9.928;2023-04-03T15:15:40;4.03;;;3.73;;
5612;SDS011;63463;53.586;9.928;2023-04-03T15:18:10;4.33;;;4.03;;
5612;SDS011;63463;53.586;9.928;2023-04-03T15:20:40;5.03;;;3.93;;
5612;SDS011;63463;53.586;9.928;2023-04-03T15:23:06;4.57;;;4.23;;
5612;SDS011;63463;53.586;9.928;2023-04-03T15:25:32;4.20;;;3.93;;
5612;SDS011;63463;53.586;9.928;2023-04-03T15:27:58;4.50;;;3.67;;
5612;SDS011;63463;53.586;9.928;2023-04-03T15:30:25;4.30;;;3.90;;
5612;SDS011;63463;53.586;9.928;2023-04-03T15:32:52;3.83;;;3.70;;
5612;SDS011;63463;53.586;9.928;2023-04-03T15:35:18;4.27;;;3.97;;
5612;SDS011;63463;53.586;9.928;2023-04-03T15:37:44;5.80;;;3.60;;
5612;SDS011;63463;53.586;9.928;2023-04-03T15:40:10;3.80;;;3.50;;
5612;SDS011;63463;53.586;9.928;2023-04-03T15:42:37;4.20;;;3.80;;
5612;SDS011;63463;53.586;9.928;2023-04-03T15:45:06;3.53;;;3.33;;
5612;SDS011;63463;53.586;9.928;2023-04-03T15:47:32;4.20;;;3.80;;
5612;SDS011;63463;53.586;9.928;2023-04-03T15:49:59;4.30;;;3.60;;
5612;SDS011;63463;53.586;9.928;2023-04-03T15:52:28;3.80;;;3.60;;
5612;SDS011;63463;53.586;9.928;2023-04-03T15:55:03;4.70;;;3.80;;
5612;SDS011;63463;53.586;9.928;2023-04-03T15:57:38;4.43;;;4.03;;
5612;SDS011;63463;53.586;9.928;2023-04-03T16:00:06;4.37;;;4.07;;
5612;SDS011;63463;53.586;9.928;2023-04-03T16:02:40;4.87;;;3.70;;
5612;SDS011;63463;53.586;9.928;2023-04-03T16:05:15;4.73;;;4.33;;
5612;SDS011;63463;53.586;9.928;2023-04-03T16:07:45;4.00;;;3.80;;
5612;SDS011;63463;53.586;9.928;2023-04-03T16:10:13;4.80;;;4.10;;
5612;SDS011;63463;53.586;9.928;2023-04-03T16:12:40;4.40;;;4.00;;
5612;SDS011;63463;53.586;9.928;2023-04-03T16:15:06;9.87;;;3.80;;
5612;SDS011;63463;53.586;9.928;2023-04-03T16:17:33;4.73;;;4.30;;
5612;SDS011;63463;53.586;9.928;2023-04-03T16:20:04;5.00;;;4.40;;
5612;SDS011;63463;53.586;9.928;2023-04-03T16:22:51;6.33;;;4.40;;
5612;SDS011;63463;53.586;9.928;2023-04-03T16:25:17;4.60;;;4.20;;
5612;SDS011;63463;53.586;9.928;2023-04-03T16:27:43;5.53;;;3.97;;
5612;SDS011;63463;53.586;9.928;2023-04-03T16:30:09;4.53;;;4.33;;
5612;SDS011;63463;53.586;9.928;2023-04-03T16:32:36;5.97;;;4.03;;
5612;SDS011;63463;53.586;9.928;2023-04-03T16:35:02;4.10;;;3.80;;
5612;SDS011;63463;53.586;9.928;2023-04-03T16:37:29;6.00;;;4.33;;
5612;SDS011;63463;53.586;9.928;2023-04-03T16:39:55;3.97;;;3.77;;
5612;SDS011;63463;53.586;9.928;2023-04-03T16:42:23;5.00;;;4.10;;
5612;SDS011;63463;53.586;9.928;2023-04-03T16:44:49;7.63;;;4.20;;
5612;SDS011;63463;53.586;9.928;2023-04-03T16:47:15;4.90;;;4.50;;
5612;SDS011;63463;53.586;9.928;2023-04-03T16:49:45;6.80;;;4.20;;
5612;SDS011;63463;53.586;9.928;2023-04-03T16:52:11;3.87;;;3.70;;
5612;SDS011;63463;53.586;9.928;2023-04-03T16:54:37;5.07;;;4.77;;
5612;SDS011;63463;53.586;9.928;2023-04-03T16:57:03;4.43;;;4.07;;
5612;SDS011;63463;53.586;9.928;2023-04-03T16:59:29;4.33;;;3.93;;
5612;SDS011;63463;53.586;9.928;2023-04-03T17:01:55;5.50;;;4.50;;
5612;SDS011;63463;53.586;9.928;2023-04-03T17:04:21;4.83;;;4.53;;
5612;SDS011;63463;53.586;9.928;2023-04-03T17:06:47;4.93;;;4.73;;
5612;SDS011;63463;53.586;9.928;2023-04-03T17:09:14;4.80;;;4.40;;
5612;SDS011;63463;53.586;9.928;2023-04-03T17:11:41;6.57;;;4.30;;
5612;SDS011;63463;53.586;9.928;2023-04-03T17:14:07;5.50;;;4.93;;
5612;SDS011;63463;53.586;9.928;2023-04-03T17:16:34;4.87;;;4.57;;
5612;SDS011;63463;53.586;9.928;2023-04-03T17:19:02;6.27;;;5.30;;
5612;SDS011;63463;53.586;9.928;2023-04-03T17:21:28;5.50;;;5.10;;
5612;SDS011;63463;53.586;9.928;2023-04-03T17:23:55;5.13;;;4.80;;